createdAt,value
2018-03-26T00:01:17.034Z,5.80
2018-03-26T00:07:22.729Z,5.40
2018-03-26T00:13:28.257Z,5.00
2018-03-26T00:19:32.763Z,5.00
2018-03-26T00:25:37.229Z,4.90
2018-03-26T00:31:41.782Z,4.90
2018-03-26T00:37:46.410Z,5.00
2018-03-26T00:43:51.299Z,5.00
2018-03-26T00:49:56.783Z,5.10
2018-03-26T00:56:02.147Z,5.00
2018-03-26T01:02:06.790Z,5.00
2018-03-26T01:08:11.559Z,5.10
2018-03-26T01:14:16.284Z,5.10
2018-03-26T01:20:21.684Z,5.10
2018-03-26T01:26:26.179Z,5.10
2018-03-26T01:32:30.721Z,5.20
2018-03-26T01:38:35.960Z,5.30
2018-03-26T01:44:40.453Z,5.30
2018-03-26T01:50:44.927Z,5.30
2018-03-26T01:56:50.646Z,5.40
2018-03-26T02:02:55.277Z,5.40
2018-03-26T02:08:59.742Z,5.40
2018-03-26T02:15:04.989Z,5.50
2018-03-26T02:21:09.610Z,5.50
2018-03-26T02:27:15.502Z,5.50
2018-03-26T02:33:20.762Z,5.40
2018-03-26T02:39:25.238Z,5.40
2018-03-26T02:45:29.782Z,5.50
2018-03-26T02:51:35.030Z,5.40
2018-03-26T02:57:39.601Z,5.40
2018-03-26T03:03:44.223Z,5.40
2018-03-26T03:09:50.457Z,5.40
2018-03-26T03:15:55.056Z,5.30
2018-03-26T03:22:00.574Z,5.40
2018-03-26T03:28:05.223Z,5.30
2018-03-26T03:34:09.956Z,5.40
2018-03-26T03:40:14.618Z,5.40
2018-03-26T03:46:20.167Z,5.40
2018-03-26T03:52:25.607Z,5.40
2018-03-26T03:58:30.327Z,5.30
2018-03-26T04:04:35.002Z,5.30
2018-03-26T04:10:39.947Z,5.40
2018-03-26T04:16:44.617Z,5.30
2018-03-26T04:22:49.958Z,5.30
2018-03-26T04:28:54.614Z,5.40
2018-03-26T04:34:59.246Z,5.40
2018-03-26T04:41:03.853Z,5.30
2018-03-26T04:47:08.583Z,5.20
2018-03-26T04:53:13.940Z,5.20
2018-03-26T04:59:19.710Z,5.20
2018-03-26T05:05:25.171Z,5.30
2018-03-26T05:11:29.856Z,5.30
2018-03-26T05:17:34.551Z,5.30
2018-03-26T05:23:39.878Z,5.30
2018-03-26T05:29:45.569Z,5.30
2018-03-26T05:35:50.744Z,5.30
2018-03-26T05:41:55.322Z,5.20
2018-03-26T05:47:59.871Z,5.20
2018-03-26T05:54:05.177Z,5.10
2018-03-26T06:00:09.684Z,5.00
2018-03-26T06:06:14.289Z,5.10
2018-03-26T06:12:19.260Z,5.10
2018-03-26T06:18:24.199Z,5.10
2018-03-26T06:24:29.497Z,5.20
2018-03-26T06:30:34.899Z,5.20
2018-03-26T06:43:21.717Z,5.40
2018-03-26T06:49:26.314Z,5.40
2018-03-26T06:55:30.827Z,5.40
2018-03-26T07:01:35.355Z,5.50
2018-03-26T07:07:39.968Z,5.60
2018-03-26T07:13:44.598Z,5.70
2018-03-26T07:19:49.695Z,5.90
2018-03-26T07:25:54.414Z,6.10
2018-03-26T07:31:58.954Z,6.30
2018-03-26T07:38:04.111Z,6.50
2018-03-26T07:44:08.702Z,6.60
2018-03-26T07:50:13.254Z,6.70
2018-03-26T07:56:18.065Z,6.80
2018-03-26T08:02:23.138Z,7.10
2018-03-26T08:08:27.628Z,7.20
2018-03-26T08:14:32.210Z,7.60
2018-03-26T08:20:36.896Z,8.30
2018-03-26T08:26:41.566Z,9.10
2018-03-26T08:32:46.808Z,10.20
2018-03-26T08:38:51.874Z,10.80
2018-03-26T08:44:57.336Z,11.10
2018-03-26T08:51:01.890Z,11.00
2018-03-26T08:57:06.449Z,11.10
2018-03-26T09:03:11.769Z,10.80
2018-03-26T09:09:16.635Z,10.80
2018-03-26T09:15:21.406Z,10.60
2018-03-26T09:21:26.740Z,10.00
2018-03-26T09:27:31.390Z,10.00
2018-03-26T09:33:36.026Z,10.00
2018-03-26T09:39:40.678Z,11.20
2018-03-26T09:45:45.596Z,12.40
2018-03-26T09:51:50.622Z,11.70
2018-03-26T09:57:55.274Z,10.50
2018-03-26T10:03:59.896Z,9.80
2018-03-26T10:10:07.887Z,9.60
2018-03-26T10:16:15.465Z,9.90
2018-03-26T10:22:21.532Z,10.10
2018-03-26T10:28:39.941Z,10.00
2018-03-26T10:34:59.597Z,9.80
2018-03-26T10:41:20.025Z,10.30
2018-03-26T10:54:14.569Z,13.50
2018-03-26T11:13:26.040Z,13.90
2018-03-26T11:19:40.938Z,12.30
2018-03-26T11:25:51.316Z,15.10
2018-03-26T11:31:58.838Z,15.40
2018-03-26T11:38:07.571Z,15.30
2018-03-26T11:44:14.224Z,14.00
2018-03-26T11:50:25.165Z,13.70
2018-03-26T11:56:36.378Z,13.60
2018-03-26T12:02:43.479Z,12.60
2018-03-26T12:08:57.521Z,12.60
2018-03-26T12:25:12.809Z,12.30
2018-03-26T12:31:33.345Z,17.60
2018-03-26T12:37:45.554Z,20.00
2018-03-26T12:44:28.953Z,19.30
2018-03-26T13:04:10.458Z,15.50
2018-03-26T13:10:15.112Z,15.50
2018-03-26T13:16:20.213Z,14.20
2018-03-26T13:22:24.749Z,14.10
2018-03-26T13:28:30.291Z,13.40
2018-03-26T13:34:34.826Z,13.30
2018-03-26T13:40:39.476Z,13.00
2018-03-26T13:46:44.063Z,12.80
2018-03-26T13:52:48.654Z,12.30
2018-03-26T13:58:53.348Z,11.80
2018-03-26T14:04:57.880Z,11.20
2018-03-26T14:11:20.311Z,11.10
2018-03-26T14:17:42.780Z,11.20
2018-03-26T14:23:47.479Z,11.20
2018-03-26T14:29:52.207Z,11.60
2018-03-26T14:35:56.971Z,11.80
2018-03-26T14:42:01.549Z,11.40
2018-03-26T14:48:06.216Z,11.60
2018-03-26T14:54:10.780Z,11.80
2018-03-26T15:00:15.283Z,12.40
2018-03-26T15:06:20.072Z,14.40
2018-03-26T15:12:24.660Z,15.10
2018-03-26T15:18:30.193Z,15.90
2018-03-26T15:24:34.758Z,15.80
2018-03-26T15:30:40.054Z,15.30
2018-03-26T15:36:44.626Z,15.30
2018-03-26T15:42:49.407Z,14.30
2018-03-26T15:48:53.896Z,13.90
2018-03-26T15:54:59.246Z,11.20
2018-03-26T16:01:03.772Z,11.20
2018-03-26T16:07:08.443Z,10.20
2018-03-26T16:13:12.948Z,9.90
2018-03-26T16:19:18.110Z,10.20
2018-03-26T16:25:23.383Z,10.20
2018-03-26T16:31:27.968Z,10.20
2018-03-26T16:37:33.241Z,9.70
2018-03-26T16:43:38.093Z,9.70
2018-03-26T16:49:43.431Z,9.20
2018-03-26T16:55:48.374Z,9.20
2018-03-26T17:01:52.955Z,8.90
2018-03-26T17:07:58.410Z,8.50
2018-03-26T17:14:03.053Z,8.50
2018-03-26T17:20:07.583Z,8.60
2018-03-26T17:26:12.097Z,8.80
2018-03-26T17:32:16.644Z,8.20
2018-03-26T17:38:21.381Z,8.00
2018-03-26T17:44:25.868Z,7.50
2018-03-26T17:50:30.359Z,7.10
2018-03-26T17:56:34.903Z,6.80
2018-03-26T18:02:39.521Z,6.40
2018-03-26T18:08:44.008Z,6.20
2018-03-26T18:14:49.578Z,5.80
2018-03-26T18:20:54.059Z,5.80
2018-03-26T18:26:58.566Z,5.60
2018-03-26T18:33:03.205Z,5.30
2018-03-26T18:39:07.682Z,5.20
2018-03-26T18:45:12.375Z,5.00
2018-03-26T18:51:17.707Z,4.90
2018-03-26T18:57:22.184Z,4.80
2018-03-26T19:03:26.774Z,4.60
2018-03-26T19:09:31.264Z,4.40
2018-03-26T19:15:36.507Z,4.30
2018-03-26T19:21:41.026Z,4.30
2018-03-26T19:27:45.636Z,4.30
2018-03-26T19:33:50.772Z,4.40
2018-03-26T19:39:55.340Z,4.30
2018-03-26T19:45:59.975Z,4.20
2018-03-26T19:52:05.259Z,3.90
2018-03-26T19:58:09.720Z,3.90
2018-03-26T20:04:14.210Z,3.70
2018-03-26T20:10:19.732Z,3.50
2018-03-26T20:16:24.793Z,3.30
2018-03-26T20:22:29.464Z,3.20
2018-03-26T20:28:33.965Z,3.00
2018-03-26T20:34:39.499Z,2.60
2018-03-26T20:40:43.998Z,2.60
2018-03-26T20:46:50.216Z,2.30
2018-03-26T20:52:54.717Z,2.30
2018-03-26T20:58:59.254Z,2.20
2018-03-26T21:05:03.804Z,2.00
2018-03-26T21:11:09.134Z,1.80
2018-03-26T21:17:13.780Z,1.70
2018-03-26T21:23:18.495Z,1.80
2018-03-26T21:29:23.017Z,1.80
2018-03-26T21:35:27.559Z,1.70
2018-03-26T21:41:32.038Z,1.60
2018-03-26T21:47:36.509Z,1.50
2018-03-26T21:53:41.005Z,1.50
2018-03-26T21:59:45.622Z,1.50
2018-03-26T22:05:51.268Z,1.30
2018-03-26T22:11:55.735Z,1.30
2018-03-26T22:18:01.039Z,1.20
2018-03-26T22:24:05.532Z,1.20
2018-03-26T22:30:10.316Z,1.20
2018-03-26T22:36:14.837Z,1.30
2018-03-26T22:42:19.683Z,1.30
2018-03-26T22:48:24.290Z,1.20
2018-03-26T22:54:28.786Z,1.20
2018-03-26T23:00:34.349Z,1.00
2018-03-26T23:06:38.877Z,1.00
2018-03-26T23:12:43.723Z,0.90
2018-03-26T23:18:49.852Z,0.80
2018-03-26T23:24:54.598Z,0.90
2018-03-26T23:30:59.283Z,0.90
2018-03-26T23:37:03.775Z,0.70
2018-03-26T23:43:08.304Z,0.70
2018-03-26T23:49:12.894Z,0.60
2018-03-26T23:55:18.456Z,0.70
